Terminal Aerodrome Forecast
Issued by NWS

Home | Current Version | Previous Version | Text Only | Print | Product List | Glossary Off
Versions: 1 2 3 4 5 6 7 8 9 10 11 12 13 14 15 16

000
FTUS43 KMPX 260500
TAFRWF
TAF
KRWF 260531Z 2606/2706 VRB03KT P6SM SCT040
      TEMPO 2607/2609 3SM BR
     FM261400 22005KT P6SM BKN120
     FM262100 26009KT P6SM SCT050=

USA.gov is the U.S. government's official web portal to all federal, state and local government web resources and services.